createdAt,value
2018-11-13T00:00:03.503Z,13.10
2018-11-13T00:02:31.965Z,13.10
2018-11-13T00:05:00.449Z,13.10
2018-11-13T00:07:28.918Z,13.10
2018-11-13T00:09:57.401Z,13.20
2018-11-13T00:12:25.854Z,13.10
2018-11-13T00:14:54.334Z,13.20
2018-11-13T00:17:22.826Z,13.20
2018-11-13T00:19:51.382Z,13.40
2018-11-13T00:22:19.834Z,13.50
2018-11-13T00:24:48.305Z,13.50
2018-11-13T00:27:16.819Z,13.50
2018-11-13T00:29:45.266Z,13.60
2018-11-13T00:32:13.728Z,13.50
2018-11-13T00:34:42.215Z,13.50
2018-11-13T00:37:10.677Z,13.40
2018-11-13T00:39:39.152Z,13.30
2018-11-13T00:42:07.650Z,13.10
2018-11-13T00:44:36.118Z,13.10
2018-11-13T00:47:04.626Z,12.90
2018-11-13T00:49:33.105Z,12.90
2018-11-13T00:52:01.555Z,12.90
2018-11-13T00:54:30.175Z,12.80
2018-11-13T00:56:58.990Z,12.80
2018-11-13T00:59:27.512Z,12.70
2018-11-13T01:01:56.031Z,12.70
2018-11-13T01:04:24.522Z,12.70
2018-11-13T01:06:53.032Z,12.70
2018-11-13T01:09:21.594Z,12.80
2018-11-13T01:11:50.069Z,12.70
2018-11-13T01:14:18.521Z,12.70
2018-11-13T01:16:46.988Z,12.90
2018-11-13T01:19:15.474Z,12.90
2018-11-13T01:21:43.946Z,12.90
2018-11-13T01:24:12.426Z,12.90
2018-11-13T01:26:40.886Z,13.00
2018-11-13T01:29:09.452Z,13.00
2018-11-13T01:31:37.903Z,13.10
2018-11-13T01:34:06.383Z,13.00
2018-11-13T01:36:34.812Z,13.10
2018-11-13T01:39:03.833Z,13.10
2018-11-13T01:41:32.270Z,13.10
2018-11-13T01:44:00.722Z,13.10
2018-11-13T01:46:29.185Z,13.10
2018-11-13T01:48:57.649Z,13.10
2018-11-13T01:51:26.118Z,13.20
2018-11-13T01:53:54.562Z,13.40
2018-11-13T01:56:23.046Z,13.40
2018-11-13T01:58:51.502Z,13.30
2018-11-13T02:01:19.991Z,13.30
2018-11-13T02:03:48.473Z,13.20
2018-11-13T02:06:16.959Z,13.20
2018-11-13T02:08:45.444Z,13.20
2018-11-13T02:11:13.921Z,13.40
2018-11-13T02:13:42.431Z,13.50
2018-11-13T02:16:10.901Z,13.40
2018-11-13T02:18:39.402Z,13.20
2018-11-13T02:21:07.907Z,13.10
2018-11-13T02:23:36.415Z,13.00
2018-11-13T02:26:05.334Z,13.00
2018-11-13T02:28:33.845Z,12.90
2018-11-13T02:31:02.371Z,12.90
2018-11-13T02:33:31.117Z,12.80
2018-11-13T02:35:59.619Z,12.80
2018-11-13T02:38:28.102Z,12.70
2018-11-13T02:40:56.630Z,12.60
2018-11-13T02:43:25.104Z,12.60
2018-11-13T02:45:53.918Z,12.50
2018-11-13T02:48:22.430Z,12.50
2018-11-13T02:50:50.952Z,12.40
2018-11-13T02:53:19.461Z,12.40
2018-11-13T02:55:47.951Z,12.30
2018-11-13T02:58:16.461Z,12.30
2018-11-13T03:00:44.989Z,12.30
2018-11-13T03:03:13.474Z,12.30
2018-11-13T03:05:41.986Z,12.20
2018-11-13T03:08:10.466Z,12.20
2018-11-13T03:10:39.002Z,12.20
2018-11-13T03:13:07.507Z,12.20
2018-11-13T03:15:36.090Z,12.10
2018-11-13T03:18:04.653Z,12.10
2018-11-13T03:20:33.164Z,12.10
2018-11-13T03:23:01.670Z,12.10
2018-11-13T03:25:32.999Z,12.20
2018-11-13T03:28:02.191Z,12.10
2018-11-13T03:30:30.688Z,12.10
2018-11-13T03:32:59.186Z,12.10
2018-11-13T03:35:27.675Z,12.10
2018-11-13T03:37:56.123Z,12.20
2018-11-13T03:40:24.609Z,12.10
2018-11-13T03:42:53.086Z,12.10
2018-11-13T03:45:21.558Z,12.10
2018-11-13T03:47:49.982Z,12.10
2018-11-13T03:50:19.577Z,12.10
2018-11-13T03:52:48.266Z,12.10
2018-11-13T03:55:17.191Z,12.10
2018-11-13T03:57:46.250Z,12.10
2018-11-13T04:00:18.862Z,12.10
2018-11-13T04:02:47.351Z,12.10
2018-11-13T04:05:16.938Z,12.10
2018-11-13T04:07:46.737Z,12.10
2018-11-13T04:10:16.242Z,12.00
2018-11-13T04:12:44.825Z,12.00
2018-11-13T04:15:14.376Z,12.00
2018-11-13T04:17:42.828Z,12.00
2018-11-13T04:20:13.190Z,12.00
2018-11-13T04:22:42.123Z,12.00
2018-11-13T04:25:10.604Z,12.00
2018-11-13T04:27:39.056Z,12.00
2018-11-13T04:30:09.398Z,12.00
2018-11-13T04:32:38.293Z,12.00
2018-11-13T04:35:08.032Z,12.00
2018-11-13T04:37:36.577Z,12.00
2018-11-13T04:40:07.702Z,11.90
2018-11-13T04:42:36.152Z,12.00
2018-11-13T04:45:05.927Z,12.00
2018-11-13T04:47:34.402Z,12.00
2018-11-13T04:50:02.933Z,12.00
2018-11-13T04:52:31.384Z,12.00
2018-11-13T04:54:59.868Z,12.00
2018-11-13T04:57:28.351Z,12.00
2018-11-13T04:59:57.669Z,12.00
2018-11-13T05:02:26.111Z,12.00
2018-11-13T05:04:54.569Z,12.00
2018-11-13T05:07:23.015Z,11.90
2018-11-13T05:09:52.614Z,12.00
2018-11-13T05:12:21.136Z,12.00
2018-11-13T05:14:49.617Z,11.90
2018-11-13T05:17:18.134Z,11.90
2018-11-13T05:19:46.609Z,12.00
2018-11-13T05:22:15.064Z,12.00
2018-11-13T05:24:43.557Z,12.00
2018-11-13T05:27:12.024Z,12.00
2018-11-13T05:29:40.517Z,12.10
2018-11-13T05:32:08.982Z,12.00
2018-11-13T05:34:37.448Z,12.10
2018-11-13T05:37:06.001Z,12.00
2018-11-13T05:39:34.463Z,12.00
2018-11-13T05:42:02.897Z,12.00
2018-11-13T05:44:31.347Z,12.00
2018-11-13T05:46:59.781Z,12.00
2018-11-13T05:49:28.263Z,12.00
2018-11-13T05:51:56.705Z,12.00
2018-11-13T05:54:25.120Z,11.90
2018-11-13T05:56:53.561Z,11.90
2018-11-13T05:59:21.968Z,11.90
2018-11-13T06:01:50.418Z,11.90
2018-11-13T06:04:18.958Z,11.90
2018-11-13T06:06:47.439Z,11.80
2018-11-13T06:09:15.863Z,11.80
2018-11-13T06:11:44.288Z,11.80
2018-11-13T06:14:12.797Z,11.80
2018-11-13T06:16:41.206Z,11.70
2018-11-13T06:19:09.642Z,11.80
2018-11-13T06:21:38.127Z,11.80
2018-11-13T06:24:06.580Z,11.70
2018-11-13T06:26:35.019Z,11.60
2018-11-13T06:29:03.434Z,11.60
2018-11-13T06:31:31.869Z,11.60
2018-11-13T06:34:00.363Z,11.50
2018-11-13T06:36:28.811Z,11.50
2018-11-13T06:38:57.304Z,11.40
2018-11-13T06:41:25.737Z,11.40
2018-11-13T06:43:54.183Z,11.40
2018-11-13T06:46:22.634Z,11.50
2018-11-13T06:48:51.120Z,11.40
2018-11-13T06:51:19.574Z,11.40
2018-11-13T06:53:59.268Z,11.40
2018-11-13T06:56:27.758Z,11.40
2018-11-13T06:58:56.192Z,11.40
2018-11-13T07:01:24.744Z,11.30
2018-11-13T07:03:53.167Z,11.30
2018-11-13T07:06:21.602Z,11.30
2018-11-13T07:08:50.029Z,11.30
2018-11-13T07:11:18.511Z,11.30
2018-11-13T07:13:46.935Z,11.30
2018-11-13T07:16:15.385Z,11.30
2018-11-13T07:18:43.818Z,11.30
2018-11-13T07:21:12.270Z,11.30
2018-11-13T07:23:40.761Z,11.30
2018-11-13T07:26:09.227Z,11.30
2018-11-13T07:28:37.682Z,11.30
2018-11-13T07:31:06.202Z,11.30
2018-11-13T07:33:34.665Z,11.40
2018-11-13T07:36:03.130Z,11.40
2018-11-13T07:38:31.572Z,11.30
2018-11-13T07:41:00.049Z,11.30
2018-11-13T07:43:28.473Z,11.40
2018-11-13T07:45:56.979Z,11.40
2018-11-13T07:48:25.410Z,11.40
2018-11-13T07:50:53.896Z,11.40
2018-11-13T07:53:22.335Z,11.40
2018-11-13T07:55:50.795Z,11.40
2018-11-13T07:58:19.268Z,11.50
2018-11-13T08:00:47.722Z,11.50
2018-11-13T08:03:29.304Z,11.50
2018-11-13T08:05:57.713Z,11.50
2018-11-13T08:08:26.138Z,11.50
2018-11-13T08:10:54.666Z,11.50
2018-11-13T08:13:23.229Z,11.50
2018-11-13T08:15:51.701Z,11.40
2018-11-13T08:18:20.120Z,11.50
2018-11-13T08:20:50.184Z,11.40
2018-11-13T08:23:18.707Z,11.50
2018-11-13T08:25:47.128Z,11.40
2018-11-13T08:28:15.614Z,11.50
2018-11-13T08:30:44.299Z,11.50
2018-11-13T08:33:12.842Z,11.60
2018-11-13T08:35:41.343Z,11.70
2018-11-13T08:38:09.870Z,11.70
2018-11-13T08:40:38.329Z,11.70
2018-11-13T08:43:06.867Z,11.70
2018-11-13T08:45:35.358Z,11.70
2018-11-13T08:48:03.889Z,11.70
2018-11-13T08:50:32.484Z,11.80
2018-11-13T08:53:00.887Z,11.80
2018-11-13T08:55:29.378Z,11.70
2018-11-13T08:57:57.945Z,11.70
2018-11-13T09:00:26.438Z,11.70
2018-11-13T09:02:54.956Z,11.70
2018-11-13T09:05:23.430Z,11.80
2018-11-13T09:07:51.934Z,11.80
2018-11-13T09:10:20.414Z,11.80
2018-11-13T09:12:48.952Z,11.90
2018-11-13T09:15:19.529Z,11.90
2018-11-13T09:17:48.144Z,11.90
2018-11-13T09:20:18.050Z,11.90
2018-11-13T09:22:46.630Z,11.90
2018-11-13T09:25:17.283Z,11.90
2018-11-13T09:27:45.810Z,11.80
2018-11-13T09:30:16.174Z,11.90
2018-11-13T09:32:44.952Z,11.90
2018-11-13T09:35:14.595Z,11.80
2018-11-13T09:37:43.367Z,11.80
2018-11-13T09:40:16.501Z,11.80
2018-11-13T09:42:45.919Z,11.80
2018-11-13T09:45:15.083Z,11.70
2018-11-13T09:47:43.783Z,11.80
2018-11-13T09:50:14.094Z,11.80
2018-11-13T09:52:43.748Z,11.80
2018-11-13T09:55:13.663Z,11.80
2018-11-13T09:57:42.162Z,11.80
2018-11-13T10:00:13.254Z,11.90
2018-11-13T10:02:43.042Z,11.90
2018-11-13T10:05:11.575Z,11.90
2018-11-13T10:07:39.615Z,11.90
2018-11-13T10:10:09.044Z,11.90
2018-11-13T10:12:37.566Z,11.90
2018-11-13T10:15:08.856Z,12.00
2018-11-13T10:17:37.442Z,12.00
2018-11-13T10:20:06.121Z,12.00
2018-11-13T10:22:34.707Z,12.00
2018-11-13T10:25:03.371Z,12.00
2018-11-13T10:27:31.936Z,12.00
2018-11-13T10:30:00.762Z,12.00
2018-11-13T10:32:29.230Z,12.10
2018-11-13T10:34:57.842Z,12.00
2018-11-13T10:37:26.368Z,12.10
2018-11-13T10:39:54.860Z,12.00
2018-11-13T10:42:23.354Z,12.10
2018-11-13T10:44:52.230Z,12.20
2018-11-13T10:47:21.072Z,12.20
2018-11-13T10:49:49.602Z,12.10
2018-11-13T10:52:18.137Z,12.20
2018-11-13T10:54:46.616Z,12.20
2018-11-13T10:57:15.239Z,12.20
2018-11-13T10:59:43.788Z,12.10
2018-11-13T11:02:17.655Z,12.10
2018-11-13T11:04:48.569Z,12.10
2018-11-13T11:07:17.078Z,12.10
2018-11-13T11:09:45.917Z,12.10
2018-11-13T11:12:14.615Z,12.10
2018-11-13T11:14:43.646Z,12.10
2018-11-13T11:17:12.194Z,12.10
2018-11-13T11:19:40.684Z,12.10
2018-11-13T11:22:09.162Z,12.10
2018-11-13T11:24:37.646Z,12.10
2018-11-13T11:27:06.130Z,12.00
2018-11-13T11:29:34.614Z,12.00
2018-11-13T11:32:03.103Z,12.10
2018-11-13T11:34:31.632Z,12.10
2018-11-13T11:37:00.141Z,12.10
2018-11-13T11:39:28.690Z,12.20
2018-11-13T11:41:57.199Z,12.20
2018-11-13T11:44:25.862Z,12.30
2018-11-13T11:46:54.310Z,12.30
2018-11-13T11:49:22.940Z,12.20
2018-11-13T11:51:51.433Z,12.20
2018-11-13T11:54:19.964Z,12.20
2018-11-13T11:56:48.501Z,12.30
2018-11-13T11:59:17.001Z,12.30
2018-11-13T12:01:45.480Z,12.30
2018-11-13T12:04:14.049Z,12.30
2018-11-13T12:06:42.573Z,12.40
2018-11-13T12:09:11.269Z,12.30
2018-11-13T12:11:40.809Z,12.40
2018-11-13T12:14:09.509Z,12.40
2018-11-13T12:16:39.065Z,12.40
2018-11-13T12:19:08.402Z,12.40
2018-11-13T12:21:36.879Z,12.40
2018-11-13T12:24:05.785Z,12.40
2018-11-13T12:26:34.601Z,12.40
2018-11-13T12:29:03.121Z,12.40
2018-11-13T12:31:31.945Z,12.40
2018-11-13T12:34:00.488Z,12.50
2018-11-13T12:36:29.065Z,12.60
2018-11-13T12:38:57.549Z,12.50
2018-11-13T12:41:26.021Z,12.50
2018-11-13T12:43:54.481Z,12.60
2018-11-13T12:46:23.004Z,12.70
2018-11-13T12:48:51.674Z,12.70
2018-11-13T12:51:25.343Z,12.70
2018-11-13T12:53:53.847Z,12.70
2018-11-13T12:56:22.350Z,12.60
2018-11-13T12:58:51.020Z,12.70
2018-11-13T13:01:19.492Z,12.70
2018-11-13T13:03:48.013Z,12.80
2018-11-13T13:06:16.532Z,12.80
2018-11-13T13:08:45.167Z,12.90
2018-11-13T13:11:13.697Z,12.90
2018-11-13T13:13:43.792Z,12.90
2018-11-13T13:16:14.052Z,12.90
2018-11-13T13:18:42.531Z,12.90
2018-11-13T13:21:11.202Z,12.90
2018-11-13T13:23:39.836Z,12.90
2018-11-13T13:26:08.573Z,12.90
2018-11-13T13:28:37.068Z,12.80
2018-11-13T13:31:05.930Z,12.90
2018-11-13T13:33:34.402Z,12.90
2018-11-13T13:36:04.425Z,12.90
2018-11-13T13:38:34.521Z,12.90
2018-11-13T13:41:03.821Z,12.90
2018-11-13T13:43:32.870Z,12.80
2018-11-13T13:46:01.477Z,13.00
2018-11-13T13:48:29.952Z,13.00
2018-11-13T13:50:58.442Z,12.90
2018-11-13T13:53:27.507Z,13.00
2018-11-13T13:55:56.021Z,13.00
2018-11-13T13:58:25.085Z,13.00
2018-11-13T14:00:54.242Z,12.90
2018-11-13T14:03:22.625Z,12.90
2018-11-13T14:05:51.208Z,12.90
2018-11-13T14:08:19.932Z,12.90
2018-11-13T14:10:48.469Z,12.90
2018-11-13T14:13:17.228Z,12.90
2018-11-13T14:15:46.125Z,12.90
2018-11-13T14:18:14.608Z,12.90
2018-11-13T14:20:43.138Z,12.90
2018-11-13T14:23:11.654Z,12.90
2018-11-13T14:25:40.144Z,12.90
2018-11-13T14:28:08.645Z,12.90
2018-11-13T14:30:37.781Z,12.90
2018-11-13T14:33:08.738Z,12.80
2018-11-13T14:35:37.325Z,12.70
2018-11-13T14:38:05.913Z,12.60
2018-11-13T14:40:36.956Z,12.70
2018-11-13T14:43:05.840Z,12.60
2018-11-13T14:45:34.334Z,12.60
2018-11-13T14:48:02.850Z,12.50
2018-11-13T14:50:32.729Z,12.50
2018-11-13T14:53:01.384Z,12.40
2018-11-13T14:55:31.752Z,12.50
2018-11-13T14:58:01.134Z,12.40
2018-11-13T15:00:30.820Z,12.40
2018-11-13T15:02:59.834Z,12.40
2018-11-13T15:05:29.021Z,12.40
2018-11-13T15:07:59.862Z,12.40
2018-11-13T15:10:38.293Z,12.30
2018-11-13T15:13:07.273Z,12.30
2018-11-13T15:15:35.775Z,12.30
2018-11-13T15:18:04.321Z,12.30
2018-11-13T15:20:32.813Z,12.30
2018-11-13T15:23:01.292Z,12.30
2018-11-13T15:25:29.870Z,12.20
2018-11-13T15:27:58.328Z,12.10
2018-11-13T15:30:28.553Z,12.20
2018-11-13T15:33:02.317Z,12.20
2018-11-13T15:35:30.836Z,12.10
2018-11-13T15:37:59.313Z,12.10
2018-11-13T15:40:28.995Z,12.00
2018-11-13T15:42:57.467Z,12.00
2018-11-13T15:45:26.010Z,12.00
2018-11-13T15:47:55.516Z,11.90
2018-11-13T15:50:26.282Z,11.80
2018-11-13T15:52:54.839Z,11.70
2018-11-13T15:55:23.349Z,11.70
2018-11-13T15:57:51.993Z,11.60
2018-11-13T16:00:27.526Z,11.60
2018-11-13T16:02:56.933Z,11.60
2018-11-13T16:05:31.041Z,11.50
2018-11-13T16:08:00.480Z,11.50
2018-11-13T16:10:29.040Z,11.40
2018-11-13T16:12:57.710Z,11.30
2018-11-13T16:15:26.867Z,11.20
2018-11-13T16:17:56.409Z,11.20
2018-11-13T16:20:25.367Z,11.10
2018-11-13T16:22:53.853Z,11.00
2018-11-13T16:25:22.345Z,11.00
2018-11-13T16:27:50.828Z,10.90
2018-11-13T16:30:23.795Z,10.80
2018-11-13T16:32:52.669Z,10.70
2018-11-13T16:35:22.316Z,10.70
2018-11-13T16:37:51.538Z,10.60
2018-11-13T16:40:22.104Z,10.50
2018-11-13T16:42:50.616Z,10.50
2018-11-13T16:45:20.404Z,10.40
2018-11-13T16:47:48.954Z,10.40
2018-11-13T16:50:20.477Z,10.30
2018-11-13T16:52:49.125Z,10.30
2018-11-13T16:55:22.905Z,10.30
2018-11-13T16:57:52.054Z,10.30
2018-11-13T17:00:21.053Z,10.30
2018-11-13T17:02:49.596Z,10.30
2018-11-13T17:05:19.155Z,10.30
2018-11-13T17:07:47.676Z,10.20
2018-11-13T17:10:18.441Z,10.20
2018-11-13T17:12:47.248Z,10.10
2018-11-13T17:15:17.645Z,10.10
2018-11-13T17:17:46.966Z,10.00
2018-11-13T17:20:15.801Z,10.00
2018-11-13T17:22:44.724Z,10.00
2018-11-13T17:25:14.551Z,10.00
2018-11-13T17:27:44.049Z,10.00
2018-11-13T17:30:19.255Z,10.00
2018-11-13T17:32:46.740Z,10.00
2018-11-13T17:35:16.717Z,10.00
2018-11-13T17:37:45.758Z,10.00
2018-11-13T17:40:16.333Z,10.10
2018-11-13T17:42:45.492Z,10.10
2018-11-13T17:45:16.325Z,10.30
2018-11-13T17:47:45.317Z,10.30
2018-11-13T17:50:16.904Z,10.40
2018-11-13T17:52:46.217Z,10.40
2018-11-13T17:55:15.497Z,10.40
2018-11-13T17:57:44.868Z,10.40
2018-11-13T18:00:17.001Z,10.40
2018-11-13T18:02:47.052Z,10.40
2018-11-13T18:05:15.976Z,10.30
2018-11-13T18:07:44.617Z,10.30
2018-11-13T18:10:13.240Z,10.20
2018-11-13T18:12:41.742Z,10.20
2018-11-13T18:15:13.077Z,10.10
2018-11-13T18:17:41.833Z,10.10
2018-11-13T18:20:13.835Z,10.10
2018-11-13T18:22:42.793Z,10.10
2018-11-13T18:25:11.325Z,10.10
2018-11-13T18:27:43.303Z,10.10
2018-11-13T18:30:15.468Z,10.20
2018-11-13T18:32:44.896Z,10.10
2018-11-13T18:35:15.778Z,10.00
2018-11-13T18:37:44.851Z,10.00
2018-11-13T18:40:14.920Z,10.00
2018-11-13T18:42:44.789Z,9.90
2018-11-13T18:45:15.729Z,9.80
2018-11-13T18:47:44.246Z,9.80
2018-11-13T18:50:15.305Z,9.80
2018-11-13T18:52:44.104Z,9.70
2018-11-13T18:55:12.937Z,9.70
2018-11-13T18:57:41.909Z,9.60
2018-11-13T19:00:16.680Z,9.60
2018-11-13T19:02:45.153Z,9.60
2018-11-13T19:05:14.148Z,9.50
2018-11-13T19:07:43.029Z,9.50
2018-11-13T19:10:15.902Z,9.50
2018-11-13T19:12:44.727Z,9.50
2018-11-13T19:15:14.457Z,9.50
2018-11-13T19:17:43.021Z,9.40
2018-11-13T19:20:14.008Z,9.50
2018-11-13T19:22:42.421Z,9.50
2018-11-13T19:25:29.748Z,9.40
2018-11-13T19:27:58.720Z,9.40
2018-11-13T19:30:27.256Z,9.40
2018-11-13T19:32:55.786Z,9.40
2018-11-13T19:35:24.586Z,9.30
2018-11-13T19:37:53.092Z,9.30
2018-11-13T19:40:24.861Z,9.20
2018-11-13T19:42:54.241Z,9.20
2018-11-13T19:45:22.865Z,9.20
2018-11-13T19:47:51.464Z,9.10
2018-11-13T19:50:24.495Z,9.10
2018-11-13T19:52:53.005Z,9.10
2018-11-13T19:55:22.049Z,9.10
2018-11-13T19:57:50.624Z,9.10
2018-11-13T20:00:22.305Z,9.10
2018-11-13T20:02:51.754Z,9.10
2018-11-13T20:05:20.349Z,9.10
2018-11-13T20:07:48.829Z,9.10
2018-11-13T20:10:20.418Z,9.10
2018-11-13T20:12:49.616Z,9.10
2018-11-13T20:15:18.639Z,9.10
2018-11-13T20:17:47.125Z,9.00
2018-11-13T20:20:17.631Z,9.00
2018-11-13T20:22:46.822Z,9.00
2018-11-13T20:25:16.864Z,9.00
2018-11-13T20:27:45.384Z,8.90
2018-11-13T20:30:19.252Z,8.90
2018-11-13T20:32:47.721Z,8.90
2018-11-13T20:35:16.232Z,8.90
2018-11-13T20:37:45.859Z,8.90
2018-11-13T20:40:15.807Z,8.90
2018-11-13T20:42:45.281Z,8.90
2018-11-13T20:45:13.734Z,8.90
2018-11-13T20:47:42.320Z,8.80
2018-11-13T20:50:12.700Z,8.70
2018-11-13T20:52:41.198Z,8.70
2018-11-13T20:55:10.175Z,8.70
2018-11-13T20:57:38.991Z,8.70
2018-11-13T21:00:13.233Z,8.70
2018-11-13T21:02:41.719Z,8.70
2018-11-13T21:05:10.237Z,8.70
2018-11-13T21:07:38.756Z,8.70
2018-11-13T21:10:14.583Z,8.60
2018-11-13T21:12:43.800Z,8.60
2018-11-13T21:15:14.331Z,8.60
2018-11-13T21:17:42.855Z,8.50
2018-11-13T21:20:13.548Z,8.60
2018-11-13T21:22:42.237Z,8.60
2018-11-13T21:25:12.441Z,8.50
2018-11-13T21:27:41.251Z,8.40
2018-11-13T21:30:12.933Z,8.30
2018-11-13T21:32:41.899Z,8.30
2018-11-13T21:35:11.185Z,8.20
2018-11-13T21:37:40.376Z,8.20
2018-11-13T21:40:10.089Z,8.20
2018-11-13T21:42:38.622Z,8.20
2018-11-13T21:45:07.861Z,8.20
2018-11-13T21:47:36.349Z,8.10
2018-11-13T21:50:05.589Z,8.00
2018-11-13T21:52:34.068Z,8.10
2018-11-13T21:55:02.533Z,8.10
2018-11-13T21:57:31.009Z,8.00
2018-11-13T21:59:59.461Z,8.00
2018-11-13T22:02:28.125Z,8.00
2018-11-13T22:04:56.631Z,7.90
2018-11-13T22:07:25.109Z,7.90
2018-11-13T22:09:53.783Z,7.90
2018-11-13T22:12:22.137Z,7.80
2018-11-13T22:14:50.586Z,7.80
2018-11-13T22:17:19.065Z,7.90
2018-11-13T22:19:47.508Z,7.80
2018-11-13T22:22:15.988Z,7.80
2018-11-13T22:24:44.432Z,7.70
2018-11-13T22:27:12.966Z,7.70
2018-11-13T22:29:41.382Z,7.70
2018-11-13T22:32:09.853Z,7.70
2018-11-13T22:34:38.316Z,7.70
2018-11-13T22:37:06.821Z,7.70
2018-11-13T22:39:35.262Z,7.70
2018-11-13T22:42:03.745Z,7.70
2018-11-13T22:44:32.193Z,7.70
2018-11-13T22:47:00.652Z,7.70
2018-11-13T22:49:29.157Z,7.70
2018-11-13T22:51:57.810Z,7.60
2018-11-13T22:54:26.256Z,7.60
2018-11-13T22:56:54.708Z,7.50
2018-11-13T22:59:23.190Z,7.50
2018-11-13T23:01:51.669Z,7.40
2018-11-13T23:04:20.132Z,7.40
2018-11-13T23:06:48.617Z,7.30
2018-11-13T23:09:17.143Z,7.30
2018-11-13T23:11:45.662Z,7.20
2018-11-13T23:14:14.120Z,7.20
2018-11-13T23:16:42.601Z,7.20
2018-11-13T23:19:11.237Z,7.10
2018-11-13T23:21:39.701Z,7.00
2018-11-13T23:24:08.221Z,6.80
2018-11-13T23:26:36.715Z,6.70
2018-11-13T23:29:06.437Z,6.70
2018-11-13T23:31:35.791Z,6.60
2018-11-13T23:34:05.125Z,6.50
2018-11-13T23:36:33.601Z,6.50
2018-11-13T23:39:02.072Z,6.40
2018-11-13T23:41:30.537Z,6.40
2018-11-13T23:43:59.049Z,6.40
2018-11-13T23:46:27.465Z,6.50
2018-11-13T23:48:55.932Z,6.60
2018-11-13T23:51:24.378Z,6.60
2018-11-13T23:53:52.986Z,6.70
2018-11-13T23:56:21.416Z,6.80
2018-11-13T23:58:49.890Z,6.80
